»·PEaware :: N733TA KSDL-KONT

N733TA :: KSDL-KONT

FLIGHT INFORMATION

Flight Status: Arrived
Operator: Privately registered:
United States
More flights under this callsign
Pilot: Drew L. (13237)
Aircraft: CESSNA 550 CITATION 2/S2/BRAVO
(C550)
More flights by this aircraft type
Origin: KSDL Scottsdale
United States
Destination: KONT Ontario Intl
United States
More flights between these airports :: More routes between these airports
Route: IZZZO7 HRRBR PHRED SCBBY2
File this flight plan on PilotEdge
Remarks: RMK / SIMBRIEF
Altitude:
(Current/Filed)
30,000ft
Speed:
(Current/Filed)
460kts
Departed: 25-Jun-20 06:47 AM
Arrived: 25-Jun-20 07:43 AM
Distance/Time
Traveled:
285nm/0:56
Distance/Time
To Go:
Arrived

Flight Plot

Page will automatically refresh every two minutes.


Map Options




Map Legend


Flown Route
Filed Route
Departure Airport
Arrival Airport
Navaid (VOR, NDB)
Fix

Horizontal Profiles

Position Reports

Time Latitude Longitude Heading Altitude Ground
Speed
25-Jun-20 06:37 33.621677 -111.914432 312 1463ft 0kts
25-Jun-20 06:37 33.621677 -111.914432 312 1463ft 0kts
25-Jun-20 06:39 33.621677 -111.914432 312 1463ft 0kts
25-Jun-20 06:39 33.621677 -111.914433 312 1463ft 0kts
25-Jun-20 06:41 33.621677 -111.914433 312 1463ft 0kts
25-Jun-20 06:41 33.621677 -111.914433 312 1463ft 0kts
25-Jun-20 06:42 33.621677 -111.914433 312 1463ft 0kts
25-Jun-20 06:43 33.621615 -111.914700 219 1462ft 4kts
25-Jun-20 06:44 33.618342 -111.916933 223 1454ft 21kts
25-Jun-20 06:45 33.614842 -111.919814 66 1442ft 4kts
25-Jun-20 06:46 33.621949 -111.911593 44 1566ft 136kts
25-Jun-20 06:47 33.653877 -111.903495 344 5104ft 139kts
25-Jun-20 06:48 33.685029 -111.934549 270 7994ft 198kts
25-Jun-20 06:49 33.681537 -112.010104 262 10844ft 253kts
25-Jun-20 06:50 33.676476 -112.093603 261 14403ft 255kts
25-Jun-20 06:51 33.671311 -112.179799 262 17409ft 264kts
25-Jun-20 06:52 33.665955 -112.268478 262 20028ft 272kts
25-Jun-20 06:53 33.660357 -112.360103 263 22342ft 279kts
25-Jun-20 06:54 33.654516 -112.454153 264 24368ft 287kts
25-Jun-20 06:55 33.648466 -112.550828 264 26130ft 294kts
25-Jun-20 06:56 33.642197 -112.649754 265 27656ft 301kts
25-Jun-20 06:57 33.635675 -112.751214 265 29035ft 307kts
25-Jun-20 06:58 33.628920 -112.855340 265 29836ft 325kts
25-Jun-20 06:59 33.621445 -112.969084 265 29836ft 352kts
25-Jun-20 07:00 33.613447 -113.088465 265 29835ft 365kts
25-Jun-20 07:01 33.605109 -113.211086 265 29833ft 372kts
25-Jun-20 07:02 33.596545 -113.335357 265 29832ft 375kts
25-Jun-20 07:03 33.587815 -113.460148 265 29831ft 376kts
25-Jun-20 07:04 33.597953 -113.584381 281 29814ft 378kts
25-Jun-20 07:05 33.620917 -113.708180 281 29779ft 379kts
25-Jun-20 07:06 33.643782 -113.831794 281 29754ft 380kts
25-Jun-20 07:07 33.648453 -113.957834 268 29753ft 379kts
25-Jun-20 07:08 33.646403 -114.083771 268 29752ft 378kts
25-Jun-20 07:09 33.654583 -114.209713 275 29751ft 379kts
25-Jun-20 07:10 33.667026 -114.335490 276 29750ft 379kts
25-Jun-20 07:11 33.679323 -114.460787 276 29749ft 378kts
25-Jun-20 07:12 33.691507 -114.586274 276 29748ft 378kts
25-Jun-20 07:13 33.703624 -114.712441 275 29755ft 378kts
25-Jun-20 07:14 33.715620 -114.838611 275 29754ft 379kts
25-Jun-20 07:15 33.727400 -114.963999 275 29771ft 379kts
25-Jun-20 07:16 33.739081 -115.089767 275 29770ft 378kts
25-Jun-20 07:17 33.751049 -115.215052 276 29769ft 377kts
25-Jun-20 07:18 33.763727 -115.340075 276 29754ft 376kts
25-Jun-20 07:19 33.776453 -115.464704 276 29739ft 375kts
25-Jun-20 07:20 33.789265 -115.588951 276 29738ft 375kts
25-Jun-20 07:21 33.801875 -115.713754 275 29746ft 375kts
25-Jun-20 07:22 33.814394 -115.838975 275 29745ft 375kts
25-Jun-20 07:23 33.826646 -115.963035 275 28291ft 368kts
25-Jun-20 07:24 33.838516 -116.084408 275 26583ft 363kts
25-Jun-20 07:25 33.850598 -116.204787 276 24874ft 363kts
25-Jun-20 07:26 33.863051 -116.324379 276 23153ft 350kts
25-Jun-20 07:27 33.875347 -116.438294 276 21434ft 339kts
25-Jun-20 07:28 33.899454 -116.544750 285 18992ft 323kts
25-Jun-20 07:29 33.925162 -116.646669 285 16464ft 314kts
25-Jun-20 07:30 33.947567 -116.748957 269 13936ft 307kts
25-Jun-20 07:31 33.945062 -116.848539 267 12139ft 291kts
25-Jun-20 07:32 33.941764 -116.944850 268 10333ft 285kts
25-Jun-20 07:33 33.966050 -117.034414 292 8521ft 281kts
25-Jun-20 07:34 33.996464 -117.121480 293 6832ft 276kts
25-Jun-20 07:35 34.022522 -117.207372 285 5419ft 270kts
25-Jun-20 07:36 34.041474 -117.291292 286 4807ft 248kts
25-Jun-20 07:37 34.054737 -117.373942 267 3795ft 254kts
25-Jun-20 07:38 34.052869 -117.459970 269 2532ft 264kts
25-Jun-20 07:39 34.053060 -117.526861 278 2142ft 134kts
25-Jun-20 07:40 34.054911 -117.566550 270 1156ft 111kts
25-Jun-20 07:41 34.054966 -117.596473 273 920ft 47kts
25-Jun-20 07:42 34.053847 -117.600506 270 916ft 21kts
25-Jun-20 07:43 34.051938 -117.601424 183 910ft 12kts
25-Jun-20 07:44 34.051083 -117.601445 180 908ft 0kts

Navigation Log

Ident Type
Flight plan parsing failed, navigation log unavailable